sensor_id;sensor_type;location;lat;lon;timestamp;P1;P2;P0
55441;PMS5003;41313;58.740;50.174;2022-11-20T00:00:06;1.00;1.00;0.00
55441;PMS5003;41313;58.740;50.174;2022-11-20T00:05:08;0.00;0.00;0.00
55441;PMS5003;41313;58.740;50.174;2022-11-20T00:10:10;1.00;1.00;0.00
55441;PMS5003;41313;58.740;50.174;2022-11-20T00:15:13;5.00;2.25;1.00
55441;PMS5003;41313;58.740;50.174;2022-11-20T00:20:15;3.25;3.25;0.75
55441;PMS5003;41313;58.740;50.174;2022-11-20T00:25:18;0.50;0.50;0.00
55441;PMS5003;41313;58.740;50.174;2022-11-20T00:30:20;3.00;3.00;1.00
55441;PMS5003;41313;58.740;50.174;2022-11-20T00:35:21;1.00;1.00;0.00
55441;PMS5003;41313;58.740;50.174;2022-11-20T00:40:23;0.75;0.75;0.00
55441;PMS5003;41313;58.740;50.174;2022-11-20T00:45:25;1.00;0.00;0.00
55441;PMS5003;41313;58.740;50.174;2022-11-20T00:50:27;0.00;0.00;0.00
55441;PMS5003;41313;58.740;50.174;2022-11-20T00:55:29;0.00;0.00;0.00
55441;PMS5003;41313;58.740;50.174;2022-11-20T01:00:31;3.00;3.00;0.75
55441;PMS5003;41313;58.740;50.174;2022-11-20T01:05:34;3.00;3.00;0.00
55441;PMS5003;41313;58.740;50.174;2022-11-20T01:10:37;0.00;0.00;0.00
55441;PMS5003;41313;58.740;50.174;2022-11-20T01:15:39;1.00;0.00;0.00
55441;PMS5003;41313;58.740;50.174;2022-11-20T01:20:41;0.00;0.00;0.00
55441;PMS5003;41313;58.740;50.174;2022-11-20T01:25:43;0.00;0.00;0.00
55441;PMS5003;41313;58.740;50.174;2022-11-20T01:30:45;0.00;0.00;0.00
55441;PMS5003;41313;58.740;50.174;2022-11-20T01:35:46;1.00;1.00;0.00
55441;PMS5003;41313;58.740;50.174;2022-11-20T01:40:55;0.00;0.00;0.00
55441;PMS5003;41313;58.740;50.174;2022-11-20T01:46:12;2.00;2.00;0.50
55441;PMS5003;41313;58.740;50.174;2022-11-20T01:51:19;1.00;1.00;0.00
55441;PMS5003;41313;58.740;50.174;2022-11-20T01:56:29;5.00;5.00;0.50
55441;PMS5003;41313;58.740;50.174;2022-11-20T02:01:35;12.00;12.00;6.00
55441;PMS5003;41313;58.740;50.174;2022-11-20T02:06:42;12.75;11.00;4.00
55441;PMS5003;41313;58.740;50.174;2022-11-20T02:11:49;11.00;9.50;6.00
55441;PMS5003;41313;58.740;50.174;2022-11-20T02:16:51;19.00;18.00;7.50
55441;PMS5003;41313;58.740;50.174;2022-11-20T02:21:57;17.25;16.50;7.50
55441;PMS5003;41313;58.740;50.174;2022-11-20T02:27:08;20.75;19.25;9.25
55441;PMS5003;41313;58.740;50.174;2022-11-20T02:32:23;17.50;17.00;4.00
55441;PMS5003;41313;58.740;50.174;2022-11-20T02:37:29;30.50;24.50;9.00
55441;PMS5003;41313;58.740;50.174;2022-11-20T02:42:36;48.50;39.75;19.50
55441;PMS5003;41313;58.740;50.174;2022-11-20T02:47:38;26.75;24.75;10.50
55441;PMS5003;41313;58.740;50.174;2022-11-20T02:52:41;6.25;6.25;2.50
55441;PMS5003;41313;58.740;50.174;2022-11-20T02:57:43;34.25;32.00;21.75
55441;PMS5003;41313;58.740;50.174;2022-11-20T03:02:45;47.25;41.75;23.00
55441;PMS5003;41313;58.740;50.174;2022-11-20T03:07:47;47.25;42.25;20.50
55441;PMS5003;41313;58.740;50.174;2022-11-20T03:12:52;103.00;69.25;32.00
55441;PMS5003;41313;58.740;50.174;2022-11-20T03:17:56;113.25;79.00;42.00
55441;PMS5003;41313;58.740;50.174;2022-11-20T03:22:58;130.67;99.67;49.00
55441;PMS5003;41313;58.740;50.174;2022-11-20T03:28:00;112.33;76.67;40.33
55441;PMS5003;41313;58.740;50.174;2022-11-20T03:33:02;125.00;94.25;47.25
55441;PMS5003;41313;58.740;50.174;2022-11-20T03:38:04;107.00;74.50;45.00
55441;PMS5003;41313;58.740;50.174;2022-11-20T03:43:06;99.00;67.00;33.00
55441;PMS5003;41313;58.740;50.174;2022-11-20T03:48:10;99.00;68.00;34.00
55441;PMS5003;41313;58.740;50.174;2022-11-20T03:53:16;80.25;61.00;33.50
55441;PMS5003;41313;58.740;50.174;2022-11-20T03:58:18;40.75;35.25;8.75
55441;PMS5003;41313;58.740;50.174;2022-11-20T04:03:20;33.50;29.50;14.50
55441;PMS5003;41313;58.740;50.174;2022-11-20T04:08:22;46.75;39.00;20.50
55441;PMS5003;41313;58.740;50.174;2022-11-20T04:13:24;16.00;13.50;6.25
55441;PMS5003;41313;58.740;50.174;2022-11-20T04:18:26;12.00;12.00;7.00
55441;PMS5003;41313;58.740;50.174;2022-11-20T04:23:28;16.00;16.00;10.00
55441;PMS5003;41313;58.740;50.174;2022-11-20T04:28:30;16.25;13.50;8.00
55441;PMS5003;41313;58.740;50.174;2022-11-20T04:33:32;3.75;3.75;1.00
55441;PMS5003;41313;58.740;50.174;2022-11-20T04:38:35;3.50;3.50;1.00
55441;PMS5003;41313;58.740;50.174;2022-11-20T04:43:38;1.75;0.50;0.50
55441;PMS5003;41313;58.740;50.174;2022-11-20T04:48:40;1.00;1.00;0.00
55441;PMS5003;41313;58.740;50.174;2022-11-20T04:53:42;0.25;0.25;0.00
55441;PMS5003;41313;58.740;50.174;2022-11-20T04:58:44;17.00;15.50;9.50
55441;PMS5003;41313;58.740;50.174;2022-11-20T05:03:46;2.50;1.00;1.00
55441;PMS5003;41313;58.740;50.174;2022-11-20T05:08:48;7.00;7.00;4.50
55441;PMS5003;41313;58.740;50.174;2022-11-20T05:13:51;9.00;8.50;6.50
55441;PMS5003;41313;58.740;50.174;2022-11-20T05:18:53;8.50;8.50;3.75
55441;PMS5003;41313;58.740;50.174;2022-11-20T05:23:56;10.50;10.50;4.25
55441;PMS5003;41313;58.740;50.174;2022-11-20T05:28:58;3.50;3.50;1.50
55441;PMS5003;41313;58.740;50.174;2022-11-20T05:34:00;9.00;9.00;4.50
55441;PMS5003;41313;58.740;50.174;2022-11-20T05:39:02;12.50;12.50;6.75
55441;PMS5003;41313;58.740;50.174;2022-11-20T05:44:04;5.50;5.50;3.25
55441;PMS5003;41313;58.740;50.174;2022-11-20T05:49:06;11.50;8.50;1.00
55441;PMS5003;41313;58.740;50.174;2022-11-20T05:54:07;14.75;14.75;7.00
55441;PMS5003;41313;58.740;50.174;2022-11-20T05:59:09;14.50;12.75;8.75
55441;PMS5003;41313;58.740;50.174;2022-11-20T06:04:11;12.25;12.25;7.00
55441;PMS5003;41313;58.740;50.174;2022-11-20T06:09:13;17.50;17.25;7.00
55441;PMS5003;41313;58.740;50.174;2022-11-20T06:14:15;34.75;34.75;21.25
55441;PMS5003;41313;58.740;50.174;2022-11-20T06:19:17;23.75;22.50;12.25
55441;PMS5003;41313;58.740;50.174;2022-11-20T06:24:19;13.50;13.50;6.25
55441;PMS5003;41313;58.740;50.174;2022-11-20T06:29:21;60.25;47.75;29.75
55441;PMS5003;41313;58.740;50.174;2022-11-20T06:34:23;66.00;53.75;24.25
55441;PMS5003;41313;58.740;50.174;2022-11-20T06:39:25;37.00;30.75;15.75
55441;PMS5003;41313;58.740;50.174;2022-11-20T06:44:27;7.25;5.25;5.00
55441;PMS5003;41313;58.740;50.174;2022-11-20T06:49:29;11.75;11.75;7.50
55441;PMS5003;41313;58.740;50.174;2022-11-20T06:54:31;16.00;16.00;9.75
55441;PMS5003;41313;58.740;50.174;2022-11-20T06:59:33;11.50;11.50;10.00
55441;PMS5003;41313;58.740;50.174;2022-11-20T07:04:35;67.00;49.25;19.75
55441;PMS5003;41313;58.740;50.174;2022-11-20T07:09:37;33.50;31.00;10.75
55441;PMS5003;41313;58.740;50.174;2022-11-20T07:14:39;53.00;44.25;21.50
55441;PMS5003;41313;58.740;50.174;2022-11-20T07:19:40;65.00;52.25;29.50
55441;PMS5003;41313;58.740;50.174;2022-11-20T07:24:44;65.50;51.00;33.50
55441;PMS5003;41313;58.740;50.174;2022-11-20T07:29:46;105.00;79.00;48.25
55441;PMS5003;41313;58.740;50.174;2022-11-20T07:34:48;102.25;75.75;42.50
55441;PMS5003;41313;58.740;50.174;2022-11-20T07:39:50;115.25;92.50;51.50
55441;PMS5003;41313;58.740;50.174;2022-11-20T07:44:52;85.25;69.00;40.00
55441;PMS5003;41313;58.740;50.174;2022-11-20T07:49:53;65.50;52.50;29.75
55441;PMS5003;41313;58.740;50.174;2022-11-20T07:54:55;41.75;23.00;6.25
55441;PMS5003;41313;58.740;50.174;2022-11-20T07:59:58;36.00;29.75;7.25
55441;PMS5003;41313;58.740;50.174;2022-11-20T08:05:00;48.25;40.75;23.00
55441;PMS5003;41313;58.740;50.174;2022-11-20T08:10:06;33.25;32.25;19.75
55441;PMS5003;41313;58.740;50.174;2022-11-20T08:15:10;1.00;0.00;0.00
55441;PMS5003;41313;58.740;50.174;2022-11-20T08:20:11;47.50;45.25;26.75
55441;PMS5003;41313;58.740;50.174;2022-11-20T08:25:13;45.25;39.00;19.75
55441;PMS5003;41313;58.740;50.174;2022-11-20T08:30:15;72.50;55.25;29.00
55441;PMS5003;41313;58.740;50.174;2022-11-20T08:35:17;68.25;51.00;27.75
55441;PMS5003;41313;58.740;50.174;2022-11-20T08:40:18;59.50;48.00;27.25
55441;PMS5003;41313;58.740;50.174;2022-11-20T08:45:20;46.25;39.25;22.50
55441;PMS5003;41313;58.740;50.174;2022-11-20T08:50:22;54.50;48.00;29.25
55441;PMS5003;41313;58.740;50.174;2022-11-20T08:55:24;63.00;52.25;33.00
55441;PMS5003;41313;58.740;50.174;2022-11-20T09:00:26;38.00;37.25;23.00
55441;PMS5003;41313;58.740;50.174;2022-11-20T09:05:28;51.75;48.00;30.25
55441;PMS5003;41313;58.740;50.174;2022-11-20T09:10:29;52.00;48.00;26.00
55441;PMS5003;41313;58.740;50.174;2022-11-20T09:15:32;66.25;48.50;28.50
55441;PMS5003;41313;58.740;50.174;2022-11-20T09:20:34;74.50;58.00;33.50
55441;PMS5003;41313;58.740;50.174;2022-11-20T09:25:36;82.50;63.75;35.50
55441;PMS5003;41313;58.740;50.174;2022-11-20T09:30:38;66.75;54.50;31.00
55441;PMS5003;41313;58.740;50.174;2022-11-20T09:35:40;72.50;55.25;31.00
55441;PMS5003;41313;58.740;50.174;2022-11-20T09:41:27;90.50;65.25;35.50
55441;PMS5003;41313;58.740;50.174;2022-11-20T09:46:21;84.50;64.00;39.50
55441;PMS5003;41313;58.740;50.174;2022-11-20T09:51:39;88.25;69.25;42.25
55441;PMS5003;41313;58.740;50.174;2022-11-20T09:57:03;100.00;78.75;45.75
55441;PMS5003;41313;58.740;50.174;2022-11-20T10:07:36;83.75;60.75;40.25
55441;PMS5003;41313;58.740;50.174;2022-11-20T10:13:00;91.25;72.00;42.50
55441;PMS5003;41313;58.740;50.174;2022-11-20T10:18:22;218.00;167.00;73.00
55441;PMS5003;41313;58.740;50.174;2022-11-20T10:29:11;103.50;75.75;45.00
55441;PMS5003;41313;58.740;50.174;2022-11-20T10:44:26;115.50;98.00;56.25
55441;PMS5003;41313;58.740;50.174;2022-11-20T10:49:50;104.25;77.75;48.50
55441;PMS5003;41313;58.740;50.174;2022-11-20T10:54:57;98.33;61.67;35.33
55441;PMS5003;41313;58.740;50.174;2022-11-20T11:00:09;115.50;92.00;49.25
55441;PMS5003;41313;58.740;50.174;2022-11-20T11:05:32;93.00;69.50;45.00
55441;PMS5003;41313;58.740;50.174;2022-11-20T11:11:10;86.75;65.25;41.00
55441;PMS5003;41313;58.740;50.174;2022-11-20T11:16:16;108.50;79.00;47.75
55441;PMS5003;41313;58.740;50.174;2022-11-20T11:21:25;89.75;70.75;44.00
55441;PMS5003;41313;58.740;50.174;2022-11-20T11:26:27;91.50;71.50;42.50
55441;PMS5003;41313;58.740;50.174;2022-11-20T11:31:31;109.00;73.25;41.50
55441;PMS5003;41313;58.740;50.174;2022-11-20T11:36:34;93.00;73.00;43.00
55441;PMS5003;41313;58.740;50.174;2022-11-20T11:41:36;133.00;109.67;59.67
55441;PMS5003;41313;58.740;50.174;2022-11-20T11:46:39;110.50;92.00;51.50
55441;PMS5003;41313;58.740;50.174;2022-11-20T11:57:00;93.00;70.00;46.00
55441;PMS5003;41313;58.740;50.174;2022-11-20T12:02:15;86.25;68.00;38.75
55441;PMS5003;41313;58.740;50.174;2022-11-20T12:07:42;117.00;96.00;52.00
55441;PMS5003;41313;58.740;50.174;2022-11-20T12:12:50;144.25;107.75;49.25
55441;PMS5003;41313;58.740;50.174;2022-11-20T12:17:55;107.00;79.00;47.00
55441;PMS5003;41313;58.740;50.174;2022-11-20T12:23:08;123.25;99.00;50.50
55441;PMS5003;41313;58.740;50.174;2022-11-20T12:28:33;135.00;96.67;48.67
55441;PMS5003;41313;58.740;50.174;2022-11-20T12:39:21;111.25;80.75;48.50
55441;PMS5003;41313;58.740;50.174;2022-11-20T12:44:51;114.50;96.50;51.50
55441;PMS5003;41313;58.740;50.174;2022-11-20T13:00:54;113.00;92.00;49.50
55441;PMS5003;41313;58.740;50.174;2022-11-20T13:06:38;102.25;77.00;42.75
55441;PMS5003;41313;58.740;50.174;2022-11-20T13:16:52;84.75;68.25;41.50
55441;PMS5003;41313;58.740;50.174;2022-11-20T13:22:00;113.00;88.50;49.00
55441;PMS5003;41313;58.740;50.174;2022-11-20T13:32:24;132.33;104.33;52.00
55441;PMS5003;41313;58.740;50.174;2022-11-20T13:37:33;109.00;84.67;50.33
55441;PMS5003;41313;58.740;50.174;2022-11-20T13:42:43;103.50;76.25;41.50
55441;PMS5003;41313;58.740;50.174;2022-11-20T13:47:56;108.25;81.25;47.25
55441;PMS5003;41313;58.740;50.174;2022-11-20T13:53:05;119.00;91.33;51.00
55441;PMS5003;41313;58.740;50.174;2022-11-20T14:03:44;203.00;156.50;77.75
55441;PMS5003;41313;58.740;50.174;2022-11-20T14:08:51;187.75;152.25;76.00
55441;PMS5003;41313;58.740;50.174;2022-11-20T14:14:18;225.00;161.75;61.25
55441;PMS5003;41313;58.740;50.174;2022-11-20T14:19:31;227.00;169.00;68.50
55441;PMS5003;41313;58.740;50.174;2022-11-20T14:24:34;259.50;197.75;98.75
55441;PMS5003;41313;58.740;50.174;2022-11-20T14:29:36;149.67;125.67;54.67
55441;PMS5003;41313;58.740;50.174;2022-11-20T14:34:40;156.33;121.67;54.67
55441;PMS5003;41313;58.740;50.174;2022-11-20T14:39:50;142.00;110.67;61.00
55441;PMS5003;41313;58.740;50.174;2022-11-20T14:44:58;125.00;102.67;52.00
55441;PMS5003;41313;58.740;50.174;2022-11-20T14:50:02;109.67;83.67;48.67
55441;PMS5003;41313;58.740;50.174;2022-11-20T14:55:27;119.67;93.33;47.33
55441;PMS5003;41313;58.740;50.174;2022-11-20T15:00:35;197.75;158.25;70.00
55441;PMS5003;41313;58.740;50.174;2022-11-20T15:05:47;158.25;126.50;64.75
55441;PMS5003;41313;58.740;50.174;2022-11-20T15:10:51;119.00;87.33;49.00
55441;PMS5003;41313;58.740;50.174;2022-11-20T15:15:55;177.00;143.67;70.33
55441;PMS5003;41313;58.740;50.174;2022-11-20T15:21:02;156.00;130.25;57.75
55441;PMS5003;41313;58.740;50.174;2022-11-20T15:26:11;149.67;119.33;56.33
55441;PMS5003;41313;58.740;50.174;2022-11-20T15:31:22;128.67;96.67;46.67
55441;PMS5003;41313;58.740;50.174;2022-11-20T15:36:24;99.75;72.00;39.50
55441;PMS5003;41313;58.740;50.174;2022-11-20T15:41:26;75.50;58.25;34.75
55441;PMS5003;41313;58.740;50.174;2022-11-20T15:46:29;42.50;37.00;18.50
55441;PMS5003;41313;58.740;50.174;2022-11-20T15:51:46;28.50;26.50;10.25
55441;PMS5003;41313;58.740;50.174;2022-11-20T15:56:50;48.25;43.25;26.00
55441;PMS5003;41313;58.740;50.174;2022-11-20T16:01:54;61.75;48.25;26.75
55441;PMS5003;41313;58.740;50.174;2022-11-20T16:06:56;75.50;58.00;32.25
55441;PMS5003;41313;58.740;50.174;2022-11-20T16:11:59;78.75;61.75;34.50
55441;PMS5003;41313;58.740;50.174;2022-11-20T16:17:07;71.75;50.50;24.00
55441;PMS5003;41313;58.740;50.174;2022-11-20T16:22:10;63.00;54.75;33.25
55441;PMS5003;41313;58.740;50.174;2022-11-20T16:27:25;58.00;45.25;28.50
55441;PMS5003;41313;58.740;50.174;2022-11-20T16:32:34;69.00;55.50;30.00
55441;PMS5003;41313;58.740;50.174;2022-11-20T16:37:36;108.50;76.50;39.50
55441;PMS5003;41313;58.740;50.174;2022-11-20T16:42:38;109.00;79.75;45.50
55441;PMS5003;41313;58.740;50.174;2022-11-20T16:47:40;91.75;63.50;33.50
55441;PMS5003;41313;58.740;50.174;2022-11-20T16:52:42;94.75;70.75;41.50
55441;PMS5003;41313;58.740;50.174;2022-11-20T16:57:43;90.00;70.00;41.50
55441;PMS5003;41313;58.740;50.174;2022-11-20T17:02:47;77.75;59.75;35.00
55441;PMS5003;41313;58.740;50.174;2022-11-20T17:07:49;51.00;45.50;28.00
55441;PMS5003;41313;58.740;50.174;2022-11-20T17:12:51;50.75;43.25;27.50
55441;PMS5003;41313;58.740;50.174;2022-11-20T17:17:53;47.75;42.75;20.00
55441;PMS5003;41313;58.740;50.174;2022-11-20T17:22:55;71.25;57.50;33.50
55441;PMS5003;41313;58.740;50.174;2022-11-20T17:27:58;114.67;92.00;50.33
55441;PMS5003;41313;58.740;50.174;2022-11-20T17:33:01;117.33;96.33;56.00
55441;PMS5003;41313;58.740;50.174;2022-11-20T17:38:03;129.33;94.33;49.33
55441;PMS5003;41313;58.740;50.174;2022-11-20T17:43:06;100.50;77.00;44.75
55441;PMS5003;41313;58.740;50.174;2022-11-20T17:48:09;67.50;51.50;36.00
55441;PMS5003;41313;58.740;50.174;2022-11-20T17:53:13;80.25;63.75;38.25
55441;PMS5003;41313;58.740;50.174;2022-11-20T17:58:14;59.00;48.25;25.25
55441;PMS5003;41313;58.740;50.174;2022-11-20T18:03:16;76.25;58.50;33.00
55441;PMS5003;41313;58.740;50.174;2022-11-20T18:08:19;66.50;55.00;33.00
55441;PMS5003;41313;58.740;50.174;2022-11-20T18:13:22;57.25;46.25;27.00
55441;PMS5003;41313;58.740;50.174;2022-11-20T18:18:45;38.75;35.25;19.25
55441;PMS5003;41313;58.740;50.174;2022-11-20T18:23:48;52.50;48.00;29.50
55441;PMS5003;41313;58.740;50.174;2022-11-20T18:28:52;63.00;51.75;31.00
55441;PMS5003;41313;58.740;50.174;2022-11-20T18:33:55;52.75;45.00;23.25
55441;PMS5003;41313;58.740;50.174;2022-11-20T18:38:58;39.00;36.00;20.50
55441;PMS5003;41313;58.740;50.174;2022-11-20T18:44:02;43.00;42.25;25.50
55441;PMS5003;41313;58.740;50.174;2022-11-20T18:49:25;57.25;46.25;22.00
55441;PMS5003;41313;58.740;50.174;2022-11-20T18:54:27;47.75;43.25;22.25
55441;PMS5003;41313;58.740;50.174;2022-11-20T18:59:29;44.00;38.00;19.50
55441;PMS5003;41313;58.740;50.174;2022-11-20T19:04:32;49.50;41.75;25.75
55441;PMS5003;41313;58.740;50.174;2022-11-20T19:09:34;37.75;37.75;27.25
55441;PMS5003;41313;58.740;50.174;2022-11-20T19:14:37;69.25;55.75;32.00
55441;PMS5003;41313;58.740;50.174;2022-11-20T19:19:39;36.50;27.00;15.00
55441;PMS5003;41313;58.740;50.174;2022-11-20T19:24:42;20.75;20.75;16.50
55441;PMS5003;41313;58.740;50.174;2022-11-20T19:29:44;64.50;53.00;29.75
55441;PMS5003;41313;58.740;50.174;2022-11-20T19:34:47;63.75;53.50;33.00
55441;PMS5003;41313;58.740;50.174;2022-11-20T19:39:50;40.25;11.00;0.00
55441;PMS5003;41313;58.740;50.174;2022-11-20T19:44:53;53.75;46.50;28.75
55441;PMS5003;41313;58.740;50.174;2022-11-20T19:49:55;74.50;59.50;33.00
55441;PMS5003;41313;58.740;50.174;2022-11-20T19:54:57;49.50;46.50;25.00
55441;PMS5003;41313;58.740;50.174;2022-11-20T19:59:59;50.75;46.25;26.75
55441;PMS5003;41313;58.740;50.174;2022-11-20T20:05:01;41.75;36.25;18.75
55441;PMS5003;41313;58.740;50.174;2022-11-20T20:10:05;18.25;18.25;8.50
55441;PMS5003;41313;58.740;50.174;2022-11-20T20:15:08;27.75;25.00;12.75
55441;PMS5003;41313;58.740;50.174;2022-11-20T20:20:10;30.25;25.25;13.00
55441;PMS5003;41313;58.740;50.174;2022-11-20T20:25:13;26.25;18.75;1.00
55441;PMS5003;41313;58.740;50.174;2022-11-20T20:30:14;18.75;18.75;12.25
55441;PMS5003;41313;58.740;50.174;2022-11-20T20:35:16;28.00;28.00;18.25
55441;PMS5003;41313;58.740;50.174;2022-11-20T20:40:18;40.50;38.50;23.50
55441;PMS5003;41313;58.740;50.174;2022-11-20T20:45:20;42.25;38.25;20.75
55441;PMS5003;41313;58.740;50.174;2022-11-20T20:50:21;38.00;33.75;21.50
55441;PMS5003;41313;58.740;50.174;2022-11-20T20:55:23;40.50;33.00;21.25
55441;PMS5003;41313;58.740;50.174;2022-11-20T21:00:25;28.00;25.25;11.00
55441;PMS5003;41313;58.740;50.174;2022-11-20T21:05:27;61.50;49.25;26.00
55441;PMS5003;41313;58.740;50.174;2022-11-20T21:10:29;28.75;27.50;18.75
55441;PMS5003;41313;58.740;50.174;2022-11-20T21:15:32;48.50;45.50;28.00
55441;PMS5003;41313;58.740;50.174;2022-11-20T21:20:33;77.50;52.50;30.25
55441;PMS5003;41313;58.740;50.174;2022-11-20T21:25:54;48.25;41.75;19.00
55441;PMS5003;41313;58.740;50.174;2022-11-20T21:31:09;42.75;34.50;20.00
55441;PMS5003;41313;58.740;50.174;2022-11-20T21:36:14;30.75;29.50;18.50
55441;PMS5003;41313;58.740;50.174;2022-11-20T21:41:18;29.00;28.25;16.00
55441;PMS5003;41313;58.740;50.174;2022-11-20T21:46:20;44.00;36.00;15.50
55441;PMS5003;41313;58.740;50.174;2022-11-20T21:51:23;90.67;68.67;40.00
55441;PMS5003;41313;58.740;50.174;2022-11-20T21:56:26;73.00;54.00;26.50
55441;PMS5003;41313;58.740;50.174;2022-11-20T22:01:29;61.25;50.25;29.50
55441;PMS5003;41313;58.740;50.174;2022-11-20T22:06:33;46.00;42.50;16.75
55441;PMS5003;41313;58.740;50.174;2022-11-20T22:11:35;51.25;45.00;27.50
55441;PMS5003;41313;58.740;50.174;2022-11-20T22:16:37;53.25;44.75;25.25
55441;PMS5003;41313;58.740;50.174;2022-11-20T22:21:39;62.25;51.75;32.00
55441;PMS5003;41313;58.740;50.174;2022-11-20T22:26:42;27.25;26.25;10.00
55441;PMS5003;41313;58.740;50.174;2022-11-20T22:31:44;32.25;28.50;15.50
55441;PMS5003;41313;58.740;50.174;2022-11-20T22:36:46;21.75;21.50;10.50
55441;PMS5003;41313;58.740;50.174;2022-11-20T22:41:48;28.25;26.00;14.50
55441;PMS5003;41313;58.740;50.174;2022-11-20T22:46:50;20.75;20.25;10.50
55441;PMS5003;41313;58.740;50.174;2022-11-20T22:51:52;24.50;24.50;12.75
55441;PMS5003;41313;58.740;50.174;2022-11-20T22:56:54;30.25;30.00;18.00
55441;PMS5003;41313;58.740;50.174;2022-11-20T23:01:56;27.00;23.00;12.25
55441;PMS5003;41313;58.740;50.174;2022-11-20T23:06:58;21.00;15.50;3.50
55441;PMS5003;41313;58.740;50.174;2022-11-20T23:11:59;27.00;27.00;17.25
55441;PMS5003;41313;58.740;50.174;2022-11-20T23:17:01;28.00;26.75;16.25
55441;PMS5003;41313;58.740;50.174;2022-11-20T23:22:03;25.00;23.25;12.75
55441;PMS5003;41313;58.740;50.174;2022-11-20T23:27:06;34.00;34.00;19.50
55441;PMS5003;41313;58.740;50.174;2022-11-20T23:32:08;37.25;35.50;20.50
55441;PMS5003;41313;58.740;50.174;2022-11-20T23:37:09;34.75;32.50;19.75
55441;PMS5003;41313;58.740;50.174;2022-11-20T23:42:12;43.00;37.50;18.25
55441;PMS5003;41313;58.740;50.174;2022-11-20T23:47:14;33.75;26.25;11.00
55441;PMS5003;41313;58.740;50.174;2022-11-20T23:52:16;36.50;35.00;19.00
55441;PMS5003;41313;58.740;50.174;2022-11-20T23:57:17;21.50;21.50;12.00
